Time;durP1;ratioP1;P1;durP2;ratioP2;P2;SDS_P1;SDS_P2;PMS_P1;PMS_P2;Temp;Humidity;BMP_temperature;BMP_pressure;BME280_temperature;BME280_humidity;BME280_pressure;Samples;Min_cycle;Max_cycle;Signal;HPM_P1;HPM_P2
2024/02/05 00:00:53;;;;;;;;;;;;;;;;;;5021917;28;20459;-57
2024/02/05 00:03:19;;;;;;;;;;;;;;;;;;5029102;28;19994;-58
2024/02/05 00:05:45;;;;;;;;;;;;;;;;;;5030365;28;20337;-58
2024/02/05 00:08:11;;;;;;;;;;;;;;;;;;5029826;28;20015;-58
2024/02/05 00:10:37;;;;;;;;;;;;;;;;;;5029549;28;19952;-57
2024/02/05 00:13:03;;;;;;;;;;;;;;;;;;5027850;28;19956;-58
2024/02/05 00:15:29;;;;;;;;;;;;;;;;;;5029121;28;19955;-58
2024/02/05 00:17:55;;;;;;;;;;;;;;;;;;5030988;28;19957;-58
2024/02/05 00:20:21;;;;;;;;;;;;;;;;;;5030015;28;19917;-58
2024/02/05 00:22:46;;;;;;;;;;;;;;;;;;5027293;28;20026;-57
2024/02/05 00:25:12;;;;;;;;;;;;;;;;;;5024373;28;20409;-58
2024/02/05 00:27:38;;;;;;;;;;;;;;;;;;5030045;28;20352;-62
2024/02/05 00:30:04;;;;;;;;;;;;;;;;;;5029141;28;19963;-61
2024/02/05 00:32:30;;;;;;;;;;;;;;;;;;5029103;28;20295;-62
2024/02/05 00:34:57;;;;;;;14.33;6.70;;;;;;;;;;5024694;28;19944;-61
2024/02/05 00:37:24;;;;;;;8.90;6.30;;;;;;;;;;5029888;28;20680;-62
2024/02/05 00:39:50;;;;;;;;;;;;;;;;;;5028772;28;19967;-63
2024/02/05 00:42:16;;;;;;;;;;;;;;;;;;5026546;28;20319;-60
2024/02/05 00:44:42;;;;;;;;;;;;;;;;;;5028593;28;20569;-62
2024/02/05 00:47:08;;;;;;;;;;;;;;;;;;5023170;28;19983;-62
2024/02/05 00:49:34;;;;;;;;;;;;;;;;;;5032692;28;20022;-62
2024/02/05 00:52:00;;;;;;;;;;;;;;;;;;5027960;28;19956;-60
2024/02/05 00:54:26;;;;;;;;;;;;;;;;;;5028855;28;20370;-62
2024/02/05 00:56:51;;;;;;;;;;;;;;;;;;5031028;28;20147;-60
2024/02/05 00:59:17;;;;;;;;;;;;;;;;;;5029192;28;20329;-62
2024/02/05 01:01:45;;;;;;;;;;;;;;;;;;5027118;28;19960;-62
2024/02/05 01:04:11;;;;;;;;;;;;;;;;;;5028784;28;20011;-61
2024/02/05 01:06:37;;;;;;;;;;;;;;;;;;5031961;28;20419;-61
2024/02/05 01:09:09;;;;;;;;;;;;;;;;;;5028547;28;20380;-58
2024/02/05 01:11:34;;;;;;;;;;;;;;;;;;5028553;28;20392;-62
2024/02/05 01:14:00;;;;;;;;;;;;;;;;;;5028394;28;19937;-62
2024/02/05 01:16:26;;;;;;;;;;;;;;;;;;5022610;28;19944;-61
2024/02/05 01:18:52;;;;;;;;;;;;;;;;;;5027098;28;19964;-61
2024/02/05 01:21:18;;;;;;;;;;;;;;;;;;5026431;28;20408;-60
2024/02/05 01:23:44;;;;;;;;;;;;;;;;;;5027644;28;19972;-62
2024/02/05 01:26:10;;;;;;;;;;;;;;;;;;5023755;28;19952;-62
2024/02/05 01:28:36;;;;;;;;;;;;;;;;;;5018914;28;19952;-60
2024/02/05 01:31:02;;;;;;;;;;;;;;;;;;5025923;28;20370;-61
2024/02/05 01:33:28;;;;;;;;;;;;;;;;;;5026824;28;20013;-62
2024/02/05 01:35:54;;;;;;;;;;;;;;;;;;5027856;28;19999;-62
2024/02/05 01:38:20;;;;;;;;;;;;;;;;;;5028709;28;19909;-56
2024/02/05 01:40:46;;;;;;;;;;;;;;;;;;5025390;28;19944;-56
2024/02/05 01:43:12;;;;;;;;;;;;;;;;;;5028663;28;20007;-56
2024/02/05 01:45:38;;;;;;;;;;;;;;;;;;5027582;28;19952;-56
2024/02/05 01:48:04;;;;;;;;;;;;;;;;;;5029784;28;19988;-56
2024/02/05 01:50:30;;;;;;;;;;;;;;;;;;5028052;28;19936;-56
2024/02/05 01:52:56;;;;;;;;;;;;;;;;;;5029542;28;20144;-56
2024/02/05 01:55:22;;;;;;;;;;;;;;;;;;5027113;28;19948;-56
2024/02/05 01:57:48;;;;;;;;;;;;;;;;;;5029562;28;19920;-56
2024/02/05 02:00:14;;;;;;;;;;;;;;;;;;5027317;28;19979;-56
2024/02/05 02:02:40;;;;;;;;;;;;;;;;;;5027714;28;20484;-56
2024/02/05 02:05:06;;;;;;;;;;;;;;;;;;5026380;28;19948;-56
2024/02/05 02:07:32;;;;;;;;;;;;;;;;;;5028541;28;19966;-56
2024/02/05 02:09:58;;;;;;;;;;;;;;;;;;5026826;28;20278;-57
2024/02/05 02:12:24;;;;;;;;;;;;;;;;;;5026089;28;20380;-56
2024/02/05 02:14:50;;;;;;;;;;;;;;;;;;5026236;28;19982;-56
2024/02/05 02:17:16;;;;;;;;;;;;;;;;;;5024189;28;20089;-56
2024/02/05 02:19:42;;;;;;;;;;;;;;;;;;5022439;28;20388;-56
2024/02/05 02:22:08;;;;;;;;;;;;;;;;;;5022738;28;19932;-56
2024/02/05 02:24:35;;;;;;;;;;;;;;;;;;5019718;28;19923;-56
2024/02/05 02:27:01;;;;;;;;;;;;;;;;;;5018896;28;20369;-56
2024/02/05 02:29:27;;;;;;;;;;;;;;;;;;5020947;28;19909;-56
2024/02/05 02:31:53;;;;;;;;;;;;;;;;;;5026761;28;19960;-56
2024/02/05 02:34:19;;;;;;;;;;;;;;;;;;5026627;28;19983;-54
2024/02/05 02:36:49;;;;;;;;;;;;;;;;;;5021831;28;19963;-54
2024/02/05 02:39:15;;;;;;;;;;;;;;;;;;5018567;28;20373;-54
2024/02/05 02:41:42;;;;;;;;;;;;;;;;;;5022131;28;19978;-54
2024/02/05 02:44:08;;;;;;;;;;;;;;;;;;5021217;28;19992;-54
2024/02/05 02:46:34;;;;;;;;;;;;;;;;;;5024440;28;20662;-54
2024/02/05 02:48:59;;;;;;;;;;;;;;;;;;5021345;28;19963;-60
2024/02/05 02:51:25;;;;;;;;;;;;;;;;;;5017882;28;19959;-60
2024/02/05 02:53:51;;;;;;;;;;;;;;;;;;5023686;28;20014;-60
2024/02/05 02:56:18;;;;;;;;;;;;;;;;;;5024826;28;19917;-60
2024/02/05 02:58:44;;;;;;;;;;;;;;;;;;5018614;28;20293;-60
2024/02/05 03:01:10;;;;;;;;;;;;;;;;;;5024247;28;20257;-60
2024/02/05 03:03:36;;;;;;;;;;;;;;;;;;5023953;28;19971;-62
2024/02/05 03:06:02;;;;;;;;;;;;;;;;;;5016147;28;20446;-62
2024/02/05 03:08:28;;;;;;;;;;;;;;;;;;5020864;28;19913;-62
2024/02/05 03:10:54;;;;;;;;;;;;;;;;;;5025952;28;19917;-60
2024/02/05 03:13:20;;;;;;;;;;;;;;;;;;5021902;28;19956;-59
2024/02/05 03:15:46;;;;;;;;;;;;;;;;;;5022109;28;19940;-63
2024/02/05 03:18:12;;;;;;;;;;;;;;;;;;5017117;28;20248;-61
2024/02/05 03:20:38;;;;;;;;;;;;;;;;;;5023728;28;19960;-63
2024/02/05 03:23:04;;;;;;;;;;;;;;;;;;5018879;28;19918;-60
2024/02/05 03:25:30;;;;;;;;;;;;;;;;;;5016391;28;19940;-63
2024/02/05 03:27:56;;;;;;;;;;;;;;;;;;5017716;28;19966;-63
2024/02/05 03:30:22;;;;;;;;;;;;;;;;;;5029091;28;19909;-62
2024/02/05 03:32:49;;;;;;;;;;;;;;;;;;5029538;28;19988;-62
2024/02/05 03:35:15;;;;;;;;;;;;;;;;;;5027816;28;20008;-62
2024/02/05 03:37:41;;;;;;;;;;;;;;;;;;5026603;28;20310;-60
2024/02/05 03:40:07;;;;;;;;;;;;;;;;;;5027705;28;19952;-64
2024/02/05 03:42:33;;;;;;;;;;;;;;;;;;5022612;28;19940;-63
2024/02/05 03:44:59;;;;;;;;;;;;;;;;;;5022307;28;19982;-62
2024/02/05 03:47:25;;;;;;;;;;;;;;;;;;5028760;28;19921;-62
2024/02/05 03:49:51;;;;;;;;;;;;;;;;;;5029293;28;19924;-63
2024/02/05 03:52:17;;;;;;;;;;;;;;;;;;5030520;28;19909;-63
2024/02/05 03:54:46;;;;;;;;;;;;;;;;;;5029464;28;20279;-63
2024/02/05 03:57:12;;;;;;;;;;;;;;;;;;5028594;28;19990;-60
2024/02/05 03:59:38;;;;;;;;;;;;;;;;;;5028370;28;20384;-54
2024/02/05 04:02:04;;;;;;;;;;;;;;;;;;5030253;28;20383;-54
2024/02/05 04:04:30;;;;;;;;;;;;;;;;;;5029454;28;20399;-54
2024/02/05 04:06:55;;;;;;;;;;;;;;;;;;5030562;28;20293;-54
2024/02/05 04:09:21;;;;;;;;;;;;;;;;;;5028770;28;20344;-54
2024/02/05 04:11:47;;;;;;;;;;;;;;;;;;5029338;28;19944;-53
2024/02/05 04:14:13;;;;;;;;;;;;;;;;;;5029184;28;19951;-54
2024/02/05 04:16:39;;;;;;;;;;;;;;;;;;5030800;28;19989;-54
2024/02/05 04:19:05;;;;;;;;;;;;;;;;;;5030311;28;19921;-54
2024/02/05 04:21:31;;;;;;;;;;;;;;;;;;5026467;28;19917;-54
2024/02/05 04:23:57;;;;;;;;;;;;;;;;;;5024209;28;20378;-54
2024/02/05 04:26:23;;;;;;;;;;;;;;;;;;5024811;28;20305;-54
2024/02/05 04:28:49;;;;;;;;;;;;;;;;;;5024923;28;19987;-53
2024/02/05 04:31:15;;;;;;;;;;;;;;;;;;5025462;28;19972;-54
2024/02/05 04:33:41;;;;;;;;;;;;;;;;;;5028295;28;20043;-54
2024/02/05 04:36:07;;;;;;;;;;;;;;;;;;5025710;28;20381;-53
2024/02/05 04:38:32;;;;;;;;;;;;;;;;;;5025639;28;19960;-54
2024/02/05 04:40:58;;;;;;;;;;;;;;;;;;5024871;28;20070;-53
2024/02/05 04:43:24;;;;;;;;;;;;;;;;;;5021908;28;19959;-53
2024/02/05 04:45:50;;;;;;;;;;;;;;;;;;5020953;28;19975;-56
2024/02/05 04:48:20;;;;;;;;;;;;;;;;;;5026865;28;20028;-56
2024/02/05 04:50:46;;;;;;;;;;;;;;;;;;5020665;28;20383;-56
2024/02/05 04:53:12;;;;;;;;;;;;;;;;;;5028063;28;19913;-56
2024/02/05 04:55:41;;;;;;;;;;;;;;;;;;5024622;28;19982;-57
2024/02/05 04:58:07;;;;;;;;;;;;;;;;;;5026022;28;20316;-57
2024/02/05 05:00:34;;;;;;;;;;;;;;;;;;5023575;28;20246;-56
2024/02/05 05:03:00;;;;;;;;;;;;;;;;;;5022082;28;19923;-57
2024/02/05 05:05:26;;;;;;;;;;;;;;;;;;5025056;28;20047;-56
2024/02/05 05:07:52;;;;;;;;;;;;;;;;;;5025194;28;20448;-56
2024/02/05 05:10:18;;;;;;;;;;;;;;;;;;5024876;28;19952;-57
2024/02/05 05:12:44;;;;;;;;;;;;;;;;;;5022195;28;19956;-57
2024/02/05 05:15:10;;;;;;;;;;;;;;;;;;5023894;28;19917;-58
2024/02/05 05:17:36;;;;;;;;;;;;;;;;;;5027628;28;19923;-57
2024/02/05 05:20:02;;;;;;;;;;;;;;;;;;5026197;28;20008;-58
2024/02/05 05:22:28;;;;;;;;;;;;;;;;;;5016567;28;20056;-58
2024/02/05 05:24:54;;;;;;;;;;;;;;;;;;5019974;28;20002;-58
2024/02/05 05:27:20;;;;;;;;;;;;;;;;;;5023391;28;20010;-58
2024/02/05 05:29:46;;;;;;;;;;;;;;;;;;5021518;28;19980;-58
2024/02/05 05:32:12;;;;;;;;;;;;;;;;;;5025854;28;20002;-57
2024/02/05 05:34:38;;;;;;;;;;;;;;;;;;5027252;28;20028;-57
2024/02/05 05:37:04;;;;;;;;;;;;;;;;;;5031647;28;19952;-57
2024/02/05 05:39:30;;;;;;;;;;;;;;;;;;5028495;28;19909;-57
2024/02/05 05:41:56;;;;;;;;;;;;;;;;;;5019358;28;20440;-57
2024/02/05 05:44:22;;;;;;;;;;;;;;;;;;5026820;28;20012;-58
2024/02/05 05:46:48;;;;;;;;;;;;;;;;;;5023111;28;20012;-57
2024/02/05 05:49:14;;;;;;;;;;;;;;;;;;5028337;28;19966;-58
2024/02/05 05:51:39;;;;;;;;;;;;;;;;;;5031409;28;19953;-57
2024/02/05 05:54:06;;;;;;;;;;;;;;;;;;5027846;28;19968;-58
2024/02/05 05:56:32;;;;;;;;;;;;;;;;;;5032266;28;19921;-57
2024/02/05 05:58:58;;;;;;;;;;;;;;;;;;5028359;28;19913;-57
2024/02/05 06:01:24;;;;;;;;;;;;;;;;;;5024159;28;20090;-57
2024/02/05 06:03:50;;;;;;;;;;;;;;;;;;5027560;28;19960;-57
2024/02/05 06:06:16;;;;;;;;;;;;;;;;;;5021079;28;20056;-57
2024/02/05 06:08:42;;;;;;;;;;;;;;;;;;5021999;28;20400;-57
2024/02/05 06:11:08;;;;;;;;;;;;;;;;;;5027462;28;20388;-57
2024/02/05 06:13:34;;;;;;;;;;;;;;;;;;5028083;28;19963;-57
2024/02/05 06:16:00;;;;;;;;;;;;;;;;;;5025701;28;19952;-57
2024/02/05 06:18:25;;;;;;;;;;;;;;;;;;5023593;28;19917;-57
2024/02/05 06:20:51;;;;;;;;;;;;;;;;;;5024703;28;19975;-61
2024/02/05 06:23:17;;;;;;;;;;;;;;;;;;5024866;28;20383;-61
2024/02/05 06:25:43;;;;;;;;;;;;;;;;;;5016386;28;19909;-61
2024/02/05 06:28:09;;;;;;;;;;;;;;;;;;5025754;28;20296;-63
2024/02/05 06:30:37;;;;;;;;;;;;;;;;;;5028017;28;20276;-63
2024/02/05 06:33:03;;;;;;;;;;;;;;;;;;5026399;28;19921;-60
2024/02/05 06:35:29;;;;;;;;;;;;;;;;;;5018641;28;19992;-64
2024/02/05 06:37:55;;;;;;;;;;;;;;;;;;5017970;28;20250;-61
2024/02/05 06:40:22;;;;;;;;;;;;;;;;;;5017362;28;20000;-61
2024/02/05 06:42:50;;;;;;;;;;;;;;;;;;5019192;28;19932;-61
2024/02/05 06:45:16;;;;;;;;;;;;;;;;;;5024752;28;20001;-60
2024/02/05 06:47:42;;;;;;;;;;;;;;;;;;5019954;28;19968;-60
2024/02/05 06:50:09;;;;;;;;;;;;;;;;;;5025062;28;19940;-63
2024/02/05 06:52:35;;;;;;;;;;;;;;;;;;5021504;28;19935;-63
2024/02/05 06:55:00;;;;;;;;;;;;;;;;;;5011997;28;19971;-63
2024/02/05 06:57:26;;;;;;;;;;;;;;;;;;5022727;28;19940;-62
2024/02/05 06:59:52;;;;;;;;;;;;;;;;;;5026039;28;19956;-59
2024/02/05 07:02:18;;;;;;;;;;;;;;;;;;5017789;28;20331;-64
2024/02/05 07:04:44;;;;;;;;;;;;;;;;;;5030180;28;19923;-64
2024/02/05 07:07:10;;;;;;;;;;;;;;;;;;5022503;28;20004;-63
2024/02/05 07:09:38;;;;;;;;;;;;;;;;;;5027592;28;19956;-62
2024/02/05 07:12:03;;;;;;;;;;;;;;;;;;5025842;28;20301;-67
2024/02/05 07:14:29;;;;;;;;;;;;;;;;;;5022939;28;19963;-64
2024/02/05 07:16:55;;;;;;;;;;;;;;;;;;5027767;28;19948;-61
2024/02/05 07:19:21;;;;;;;;;;;;;;;;;;5026401;28;20389;-64
2024/02/05 07:21:47;;;;;;;;;;;;;;;;;;5021526;28;19964;-64
2024/02/05 07:24:13;;;;;;;;;;;;;;;;;;5023024;28;19952;-64
2024/02/05 07:26:39;;;;;;;;;;;;;;;;;;5020135;28;19949;-64
2024/02/05 07:29:05;;;;;;;;;;;;;;;;;;5016788;28;19913;-57
2024/02/05 07:31:31;;;;;;;;;;;;;;;;;;5029304;28;19909;-64
2024/02/05 07:33:58;;;;;;;;;;;;;;;;;;5025609;28;19955;-63
2024/02/05 07:36:24;;;;;;;;;;;;;;;;;;5027205;28;19948;-65
2024/02/05 07:38:50;;;;;;;;;;;;;;;;;;5029851;28;19944;-65
2024/02/05 07:41:16;;;;;;;;;;;;;;;;;;5020797;28;20369;-64
2024/02/05 07:43:41;;;;;;;;;;;;;;;;;;5026931;28;19913;-64
2024/02/05 07:46:08;;;;;;;;;;;;;;;;;;5018527;28;20013;-63
2024/02/05 07:48:34;;;;;;;;;;;;;;;;;;5027795;28;19960;-63
2024/02/05 07:51:00;;;;;;;;;;;;;;;;;;5024953;28;20393;-63
2024/02/05 07:53:26;;;;;;;;;;;;;;;;;;5028407;28;20214;-64
2024/02/05 07:55:52;;;;;;;;;;;;;;;;;;5022971;28;20337;-64
2024/02/05 07:58:18;;;;;;;;;;;;;;;;;;5029098;28;20249;-60
2024/02/05 08:00:44;;;;;;;;;;;;;;;;;;5026437;28;19960;-64
2024/02/05 08:03:10;;;;;;;;;;;;;;;;;;5026124;28;20025;-62
2024/02/05 08:05:37;;;;;;;;;;;;;;;;;;5026526;28;20400;-63
2024/02/05 08:08:03;;;;;;;;;;;;;;;;;;5025070;28;20245;-64
2024/02/05 08:10:29;;;;;;;;;;;;;;;;;;5026131;28;19948;-63
2024/02/05 08:12:55;;;;;;;;;;;;;;;;;;5022682;28;19964;-63
2024/02/05 08:15:20;;;;;;;;;;;;;;;;;;5026219;28;19952;-63
2024/02/05 08:17:46;;;;;;;;;;;;;;;;;;5025757;28;19956;-64
2024/02/05 08:20:13;;;;;;;;;;;;;;;;;;5021984;28;20400;-64
2024/02/05 08:22:39;;;;;;;;;;;;;;;;;;5027851;28;19921;-63
2024/02/05 08:25:06;;;;;;;;;;;;;;;;;;5021695;28;19952;-62
2024/02/05 08:27:32;;;;;;;;;;;;;;;;;;5026172;28;19979;-60
2024/02/05 08:29:58;;;;;;;;;;;;;;;;;;5017414;28;20337;-63
2024/02/05 08:32:24;;;;;;;;;;;;;;;;;;5026944;28;20399;-62
2024/02/05 08:34:52;;;;;;;;;;;;;;;;;;5022579;28;19948;-63
2024/02/05 08:37:19;;;;;;;;;;;;;;;;;;5027266;28;19947;-63
2024/02/05 08:39:45;;;;;;;;;;;;;;;;;;5027834;28;19971;-63
2024/02/05 08:42:11;;;;;;;;;;;;;;;;;;5025359;28;20383;-58
2024/02/05 08:44:37;;;;;;;;;;;;;;;;;;5027608;28;19975;-58
2024/02/05 08:47:03;;;;;;;;;;;;;;;;;;5021441;28;19947;-58
2024/02/05 08:49:29;;;;;;;;;;;;;;;;;;5024576;28;19967;-56
2024/02/05 08:51:56;;;;;;;;;;;;;;;;;;5017795;28;20010;-55
2024/02/05 08:54:22;;;;;;;;;;;;;;;;;;5024526;28;20483;-55
2024/02/05 08:56:48;;;;;;;;;;;;;;;;;;5022811;28;20458;-55
2024/02/05 08:59:14;;;;;;;;;;;;;;;;;;5020609;28;19920;-56
2024/02/05 09:01:42;;;;;;;;;;;;;;;;;;5027792;28;20007;-56
2024/02/05 09:04:08;;;;;;;;;;;;;;;;;;5027910;28;20415;-58
2024/02/05 09:06:34;;;;;;;;;;;;;;;;;;5028166;28;20004;-58
2024/02/05 09:09:00;;;;;;;;;;;;;;;;;;5027876;28;20218;-57
2024/02/05 09:11:31;;;;;;;;;;;;;;;;;;5026854;28;20443;-58
2024/02/05 09:13:57;;;;;;;;;;;;;;;;;;5027449;28;19913;-58
2024/02/05 09:16:23;;;;;;;;;;;;;;;;;;5027341;28;20429;-58
2024/02/05 09:18:49;;;;;;;;;;;;;;;;;;5027446;28;19960;-58
2024/02/05 09:21:15;;;;;;;;;;;;;;;;;;5027246;28;19964;-58
2024/02/05 09:23:41;;;;;;;;;;;;;;;;;;5018779;28;19956;-58
2024/02/05 09:26:07;;;;;;;;;;;;;;;;;;5025524;28;19947;-58
2024/02/05 09:28:33;;;;;;;;;;;;;;;;;;5028601;28;19909;-58
2024/02/05 09:30:59;;;;;;;;;;;;;;;;;;5027142;28;19923;-58
2024/02/05 09:33:25;;;;;;;;;;;;;;;;;;5027012;28;19917;-58
2024/02/05 09:35:52;;;;;;;;;;;;;;;;;;5025753;28;19927;-58
2024/02/05 09:38:18;;;;;;;;;;;;;;;;;;5027049;28;20369;-58
2024/02/05 09:40:44;;;;;;;;;;;;;;;;;;5025420;28;19951;-58
2024/02/05 09:43:10;;;;;;;;;;;;;;;;;;5024329;28;19952;-58
2024/02/05 09:45:36;;;;;;;;;;;;;;;;;;5026461;28;19949;-58
2024/02/05 09:48:02;;;;;;;;;;;;;;;;;;5024770;28;19909;-58
2024/02/05 09:50:28;;;;;;;;;;;;;;;;;;5027609;28;19951;-58
2024/02/05 09:52:55;;;;;;;;;;;;;;;;;;5019984;28;19960;-58
2024/02/05 09:55:21;;;;;;;;;;;;;;;;;;5024520;28;20364;-58
2024/02/05 09:57:47;;;;;;;;;;;;;;;;;;5028082;28;19948;-57
2024/02/05 10:00:13;;;;;;;;;;;;;;;;;;5024363;28;19979;-57
2024/02/05 10:02:38;;;;;;;;;;;;;;;;;;5025771;28;20019;-58
2024/02/05 10:05:04;;;;;;;;;;;;;;;;;;5026471;28;19937;-57
2024/02/05 10:07:31;;;;;;;;;;;;;;;;;;5026620;28;19971;-58
2024/02/05 10:09:57;;;;;;;;;;;;;;;;;;5019642;28;19936;-57
2024/02/05 10:12:23;;;;;;;;;;;;;;;;;;5040388;28;19990;-58
2024/02/05 10:14:49;;;;;;;;;;;;;;;;;;5023990;28;20448;-57
2024/02/05 10:17:15;;;;;;;;;;;;;;;;;;5025315;28;20129;-57
2024/02/05 10:19:41;;;;;;;;;;;;;;;;;;5026603;28;19971;-58
2024/02/05 10:22:07;;;;;;;;;;;;;;;;;;5024486;28;19963;-58
2024/02/05 10:24:34;;;;;;;;;;;;;;;;;;5024460;28;19967;-57
2024/02/05 10:27:00;;;;;;;;;;;;;;;;;;5029008;28;20352;-58
2024/02/05 10:29:25;;;;;;;;;;;;;;;;;;5022646;28;20027;-58
2024/02/05 10:31:53;;;;;;;;;;;;;;;;;;5023645;28;20009;-58
2024/02/05 10:34:19;;;;;;;;;;;;;;;;;;5021789;28;20089;-58
2024/02/05 10:36:45;;;;;;;;;;;;;;;;;;5021869;28;20368;-58
2024/02/05 10:39:11;;;;;;;;;;;;;;;;;;5022670;28;19991;-58
2024/02/05 10:41:37;;;;;;;;;;;;;;;;;;5025707;28;20036;-57
2024/02/05 10:44:03;;;;;;;;;;;;;;;;;;5024857;28;20397;-58
2024/02/05 10:46:29;;;;;;;;;;;;;;;;;;5018267;28;19919;-58
2024/02/05 10:48:55;;;;;;;;;;;;;;;;;;5022437;28;20360;-58
2024/02/05 10:51:21;;;;;;;;;;;;;;;;;;5019418;28;20090;-58
2024/02/05 10:53:47;;;;;;;;;;;;;;;;;;5025086;28;20321;-58
2024/02/05 10:56:13;;;;;;;;;;;;;;;;;;5024896;28;19962;-58
2024/02/05 10:58:41;;;;;;;;;;;;;;;;;;5024744;28;20051;-58
2024/02/05 11:01:07;;;;;;;;;;;;;;;;;;5017027;28;20316;-58
2024/02/05 11:03:37;;;;;;;;;;;;;;;;;;5023906;28;19947;-58
2024/02/05 11:06:03;;;;;;;;;;;;;;;;;;5023069;28;19923;-58
2024/02/05 11:08:29;;;;;;;;;;;;;;;;;;5022314;28;19909;-58
2024/02/05 11:10:55;;;;;;;;;;;;;;;;;;5017499;28;20075;-57
2024/02/05 11:13:21;;;;;;;;;;;;;;;;;;5019761;28;20082;-58
2024/02/05 11:15:47;;;;;;;;;;;;;;;;;;5019653;28;19956;-58
2024/02/05 11:18:14;;;;;;;;;;;;;;;;;;5023667;28;19963;-58
2024/02/05 11:20:40;;;;;;;;;;;;;;;;;;5017810;28;19986;-58
2024/02/05 11:23:05;;;;;;;;;;;;;;;;;;5023389;28;20330;-58
2024/02/05 11:25:31;;;;;;;;;;;;;;;;;;5023621;28;20403;-57
2024/02/05 11:27:57;;;;;;;;;;;;;;;;;;5024516;28;19964;-58
2024/02/05 11:30:23;;;;;;;;;;;;;;;;;;5022431;28;20004;-58
2024/02/05 11:32:49;;;;;;;;;;;;;;;;;;5026618;28;20268;-58
2024/02/05 11:35:15;;;;;;;;;;;;;;;;;;5020529;28;19923;-58
2024/02/05 11:37:42;;;;;;;;;;;;;;;;;;5019030;28;19944;-58
2024/02/05 11:40:09;;;;;;;;;;;;;;;;;;5020014;28;20043;-58
2024/02/05 11:42:35;;;;;;;;;;;;;;;;;;5024123;28;19928;-58
2024/02/05 11:45:02;;;;;;;;;;;;;;;;;;5024138;28;19917;-57
2024/02/05 11:47:28;;;;;;;;;;;;;;;;;;5027450;28;19909;-58
2024/02/05 11:49:56;;;;;;;;;;;;;;;;;;5028797;28;19908;-58
2024/02/05 11:52:22;;;;;;;;;;;;;;;;;;5025512;28;19914;-58
2024/02/05 11:54:49;;;;;;;;;;;;;;;;;;5029959;28;19920;-57
2024/02/05 11:57:15;;;;;;;;;;;;;;;;;;5030062;28;19913;-58
2024/02/05 11:59:41;;;;;;;;;;;;;;;;;;5029605;28;19909;-57
2024/02/05 12:02:07;;;;;;;;;;;;;;;;;;5027302;28;19916;-58
2024/02/05 12:04:33;;;;;;;;;;;;;;;;;;5028452;28;20677;-58
2024/02/05 12:06:59;;;;;;;;;;;;;;;;;;5025128;28;20393;-58
2024/02/05 12:09:25;;;;;;;;;;;;;;;;;;5028399;28;19917;-58
2024/02/05 12:11:52;;;;;;;;;;;;;;;;;;5029197;28;19913;-58
2024/02/05 12:14:18;;;;;;;;;;;;;;;;;;5022728;28;19958;-56
2024/02/05 12:16:44;;;;;;;;;;;;;;;;;;5023422;28;20000;-56
2024/02/05 12:19:10;;;;;;;;;;;;;;;;;;5028308;28;20015;-57
2024/02/05 12:21:36;;;;;;;;;;;;;;;;;;5028173;28;20043;-56
2024/02/05 12:24:02;;;;;;;;;;;;;;;;;;5028899;28;20299;-57
2024/02/05 12:26:28;;;;;;;;;;;;;;;;;;5024276;28;20028;-56
2024/02/05 12:28:54;;;;;;;;;;;;;;;;;;5027896;28;19951;-56
2024/02/05 12:31:20;;;;;;;;;;;;;;;;;;5027233;28;20357;-56
2024/02/05 12:33:46;;;;;;;;;;;;;;;;;;5022333;28;20289;-56
2024/02/05 12:36:12;;;;;;;;;;;;;;;;;;5028528;28;19971;-57
2024/02/05 12:38:38;;;;;;;;;;;;;;;;;;5024519;28;19965;-57
2024/02/05 12:41:04;;;;;;;;;;;;;;;;;;5024492;28;19955;-57
2024/02/05 12:43:30;;;;;;;;;;;;;;;;;;5027125;28;19953;-56
2024/02/05 12:45:56;;;;;;;;;;;;;;;;;;5028197;28;19948;-56
2024/02/05 12:48:22;;;;;;;;;;;;;;;;;;5026262;28;20284;-56
2024/02/05 12:50:48;;;;;;;;;;;;;;;;;;5025674;28;19913;-56
2024/02/05 12:53:14;;;;;;;;;;;;;;;;;;5025738;28;19909;-57
2024/02/05 12:55:40;;;;;;;;;;;;;;;;;;5023134;28;20106;-58
2024/02/05 12:58:07;;;;;;;;;;;;;;;;;;5024612;28;19967;-56
2024/02/05 13:00:33;;;;;;;;;;;;;;;;;;5027514;28;19993;-57
2024/02/05 13:02:59;;;;;;;;;;;;;;;;;;5027558;28;19996;-57
2024/02/05 13:05:24;;;;;;;;;;;;;;;;;;5023260;28;19920;-64
2024/02/05 13:07:50;;;;;;;;;;;;;;;;;;5026191;28;19908;-63
2024/02/05 13:10:16;;;;;;;;;;;;;;;;;;5018992;28;20066;-63
2024/02/05 13:12:42;;;;;;;;;;;;;;;;;;5024656;28;19963;-62
2024/02/05 13:15:09;;;;;;;;;;;;;;;;;;5026373;28;20346;-56
2024/02/05 13:17:35;;;;;;;;;;;;;;;;;;5027719;28;19923;-57
2024/02/05 13:20:01;;;;;;;;;;;;;;;;;;5027462;28;20003;-56
2024/02/05 13:22:28;;;;;;;;;;;;;;;;;;5025721;28;19969;-56
2024/02/05 13:24:54;;;;;;;;;;;;;;;;;;5020969;28;19941;-55
2024/02/05 13:27:20;;;;;;;;;;;;;;;;;;5023211;28;19983;-55
2024/02/05 13:29:46;;;;;;;;;;;;;;;;;;5019788;28;20380;-54
2024/02/05 13:32:12;;;;;;;;;;;;;;;;;;5025791;28;19964;-56
2024/02/05 13:34:40;;;;;;;;;;;;;;;;;;5022907;28;19952;-54
2024/02/05 13:37:07;;;;;;;;;;;;;;;;;;5021483;28;19909;-54
2024/02/05 13:39:35;;;;;;;;;;;;;;;;;;5023159;28;20591;-56
2024/02/05 13:42:03;;;;;;;;;;;;;;;;;;5025614;28;19956;-58
2024/02/05 13:44:29;;;;;;;;;;;;;;;;;;5025217;28;20978;-58
2024/02/05 13:46:55;;;;;;;;;;;;;;;;;;5023700;28;20401;-58
2024/02/05 13:49:21;;;;;;;;;;;;;;;;;;5021886;28;19948;-57
2024/02/05 13:51:47;;;;;;;;;;;;;;;;;;5027324;28;20043;-58
2024/02/05 13:54:13;;;;;;;;;;;;;;;;;;5020280;28;20086;-58
2024/02/05 13:56:39;;;;;;;;;;;;;;;;;;5019939;28;20495;-58
2024/02/05 13:59:05;;;;;;;;;;;;;;;;;;5022544;28;20014;-58
2024/02/05 14:01:31;;;;;;;;;;;;;;;;;;5025676;28;19968;-58
2024/02/05 14:03:57;;;;;;;;;;;;;;;;;;5024745;28;19952;-58
2024/02/05 14:06:22;;;;;;;;;;;;;;;;;;5026355;28;19909;-58
2024/02/05 14:08:48;;;;;;;;;;;;;;;;;;5023367;28;19943;-58
2024/02/05 14:11:15;;;;;;;;;;;;;;;;;;5024485;28;20418;-58
2024/02/05 14:13:41;;;;;;;;;;;;;;;;;;5023111;28;19980;-58
2024/02/05 14:16:07;;;;;;;;;;;;;;;;;;5021352;28;19954;-58
2024/02/05 14:18:33;;;;;;;;;;;;;;;;;;5023542;28;19978;-57
2024/02/05 14:20:59;;;;;;;;;;;;;;;;;;5029217;28;19940;-58
2024/02/05 14:23:25;;;;;;;;;;;;;;;;;;5028986;28;19959;-58
2024/02/05 14:25:51;;;;;;;;;;;;;;;;;;5029295;28;19985;-57
2024/02/05 14:28:17;;;;;;;;;;;;;;;;;;5021178;28;20479;-57
2024/02/05 14:30:43;;;;;;;;;;;;;;;;;;5011119;28;20050;-58
2024/02/05 14:33:09;;;;;;;;;;;;;;;;;;5017835;28;19998;-55
2024/02/05 14:35:35;;;;;;;;;;;;;;;;;;5029234;28;20308;-55
2024/02/05 14:38:01;;;;;;;;;;;;;;;;;;5028739;28;19959;-51
2024/02/05 14:40:27;;;;;;;;;;;;;;;;;;5027124;28;19963;-53
2024/02/05 14:42:53;;;;;;;;;;;;;;;;;;5028395;28;20027;-54
2024/02/05 14:45:19;;;;;;;;;;;;;;;;;;5027846;28;19909;-54
2024/02/05 14:47:45;;;;;;;;;;;;;;;;;;5028392;28;20088;-54
2024/02/05 14:50:11;;;;;;;;;;;;;;;;;;5027748;28;20179;-53
2024/02/05 14:52:37;;;;;;;;;;;;;;;;;;5028306;28;19916;-53
2024/02/05 14:55:03;;;;;;;;;;;;;;;;;;5023911;28;19956;-54
2024/02/05 14:57:29;;;;;;;;;;;;;;;;;;5023269;28;19963;-54
2024/02/05 14:59:55;;;;;;;;;;;;;;;;;;5023906;28;19983;-54
2024/02/05 15:02:21;;;;;;;;;;;;;;;;;;5028968;28;20388;-55
2024/02/05 15:04:47;;;;;;;;;;;;;;;;;;5027701;28;19944;-54
2024/02/05 15:07:13;;;;;;;;;;;;;;;;;;5027965;28;20018;-55
2024/02/05 15:09:39;;;;;;;;;;;;;;;;;;5027493;28;19913;-50
2024/02/05 15:12:05;;;;;;;;;;;;;;;;;;5028399;28;20365;-53
2024/02/05 15:14:31;;;;;;;;;;;;;;;;;;5027765;28;20051;-51
2024/02/05 15:16:57;;;;;;;;;;;;;;;;;;5027837;28;19990;-54
2024/02/05 15:19:23;;;;;;;;;;;;;;;;;;5025902;28;20056;-54
2024/02/05 15:21:49;;;;;;;;;;;;;;;;;;5029964;28;19956;-55
2024/02/05 15:24:15;;;;;;;;;;;;;;;;;;5031741;28;19912;-56
2024/02/05 15:26:45;;;;;;;;;;;;;;;;;;5031432;28;19985;-55
2024/02/05 15:29:11;;;;;;;;;;;;;;;;;;5031672;28;20274;-55
2024/02/05 15:31:37;;;;;;;;;;;;;;;;;;5031644;28;20039;-53
2024/02/05 15:34:03;;;;;;;;;;;;;;;;;;5031371;28;19956;-53
2024/02/05 15:36:30;;;;;;;;;;;;;;;;;;5031650;28;19949;-55
2024/02/05 15:38:56;;;;;;;;;;;;;;;;;;5031606;28;19995;-55
2024/02/05 15:41:22;;;;;;;;;;;;;;;;;;5030695;28;19995;-54
2024/02/05 15:43:49;;;;;;;;;;;;;;;;;;5031885;28;19955;-57
2024/02/05 15:46:15;;;;;;;;;;;;;;;;;;5030671;28;20107;-57
2024/02/05 15:48:41;;;;;;;;;;;;;;;;;;5031713;28;20260;-57
2024/02/05 15:51:07;;;;;;;;;;;;;;;;;;5030585;28;20328;-58
2024/02/05 15:53:33;;;;;;;;;;;;;;;;;;5017731;28;19949;-58
2024/02/05 15:55:59;;;;;;;;;;;;;;;;;;5024466;28;19959;-57
2024/02/05 15:58:25;;;;;;;;;;;;;;;;;;5031322;28;19960;-58
2024/02/05 16:00:51;;;;;;;;;;;;;;;;;;5030767;28;21069;-57
2024/02/05 16:03:16;;;;;;;;;;;;;;;;;;5023438;28;20399;-58
2024/02/05 16:05:42;;;;;;;;;;;;;;;;;;5031667;28;19982;-58
2024/02/05 16:08:08;;;;;;;;;;;;;;;;;;5027853;28;19948;-57
2024/02/05 16:10:35;;;;;;;;;;;;;;;;;;5029968;28;19963;-58
2024/02/05 16:13:01;;;;;;;;;;;;;;;;;;5025339;28;20020;-58
2024/02/05 16:15:27;;;;;;;;;;;;;;;;;;5029538;28;19909;-58
2024/02/05 16:17:53;;;;;;;;;;;;;;;;;;5029531;28;19978;-58
2024/02/05 16:20:19;;;;;;;;;;;;;;;;;;5029153;28;20011;-58
2024/02/05 16:22:48;;;;;;;;;;;;;;;;;;5029195;28;19984;-58
2024/02/05 16:25:14;;;;;;;;;;;;;;;;;;5028585;28;19920;-58
2024/02/05 16:27:40;;;;;;;;;;;;;;;;;;5025097;28;19948;-58
2024/02/05 16:30:06;;;;;;;;;;;;;;;;;;5027230;28;19963;-57
2024/02/05 16:32:32;;;;;;;;;;;;;;;;;;5025502;28;19944;-57
2024/02/05 16:34:59;;;;;;;;;;;;;;;;;;5027611;28;19917;-58